Jack Frost Mountain, Pennsylvania
Current Conditions -  °F | °C
As of 7:50 AM on Tuesday 21 Oct 2014 (Local Time) from KMPO Reporting Station
Moderate Fog Moderate Fog  
Wind Chill: 47°   Ceiling: 200
Heat Index: 47°   Visibility: 0.25mi
Dew Point: 46°   Wind: 3mph
Humidity: 97%   Direction: 90°E
Pressure: 29.87"   Gusts: NA
Location:  41.1°N, 75.63°W
Report Text: KMPO 211150Z AUTO 09003KT 1/4SM FG VV002 08/08 A2987 RMK AO2 RAE23 SLP118 6//// 7//// T00830078 10094 20083 53001 TSNO PNO $
Loading
Personal Weather Stations






























Interactive Weather Map
Tropical Storm Tracking
New forecast layout! Learn more

10-Day Weather Forecast

Advertisements
Track Severe Weather on mobile